sensor_id;sensor_type;location;lat;lon;timestamp;P1;durP1;ratioP1;P2;durP2;ratioP2
52686;SDS011;38584;49.426;8.396;2023-08-06T00:00:12;12.00;;;3.75;;
52686;SDS011;38584;49.426;8.396;2023-08-06T00:02:37;8.68;;;3.22;;
52686;SDS011;38584;49.426;8.396;2023-08-06T00:05:05;9.53;;;3.37;;
52686;SDS011;38584;49.426;8.396;2023-08-06T00:07:30;8.40;;;3.30;;
52686;SDS011;38584;49.426;8.396;2023-08-06T00:09:58;11.25;;;3.65;;
52686;SDS011;38584;49.426;8.396;2023-08-06T00:12:26;12.98;;;3.63;;
52686;SDS011;38584;49.426;8.396;2023-08-06T00:14:52;8.98;;;3.40;;
52686;SDS011;38584;49.426;8.396;2023-08-06T00:17:18;10.20;;;3.55;;
52686;SDS011;38584;49.426;8.396;2023-08-06T00:19:43;9.10;;;3.35;;
52686;SDS011;38584;49.426;8.396;2023-08-06T00:22:08;8.32;;;2.88;;
52686;SDS011;38584;49.426;8.396;2023-08-06T00:24:40;9.87;;;3.20;;
52686;SDS011;38584;49.426;8.396;2023-08-06T00:27:08;10.13;;;3.50;;
52686;SDS011;38584;49.426;8.396;2023-08-06T00:29:33;7.82;;;2.90;;
52686;SDS011;38584;49.426;8.396;2023-08-06T00:31:58;6.90;;;2.67;;
52686;SDS011;38584;49.426;8.396;2023-08-06T00:34:26;9.30;;;2.90;;
52686;SDS011;38584;49.426;8.396;2023-08-06T00:36:57;8.52;;;2.90;;
52686;SDS011;38584;49.426;8.396;2023-08-06T00:39:23;9.52;;;2.83;;
52686;SDS011;38584;49.426;8.396;2023-08-06T00:41:54;8.00;;;2.83;;
52686;SDS011;38584;49.426;8.396;2023-08-06T00:44:19;8.40;;;2.90;;
52686;SDS011;38584;49.426;8.396;2023-08-06T00:46:44;10.33;;;2.70;;
52686;SDS011;38584;49.426;8.396;2023-08-06T00:49:13;7.30;;;2.83;;
52686;SDS011;38584;49.426;8.396;2023-08-06T00:51:38;8.73;;;3.00;;
52686;SDS011;38584;49.426;8.396;2023-08-06T00:54:03;8.63;;;2.83;;
52686;SDS011;38584;49.426;8.396;2023-08-06T00:56:28;6.50;;;2.70;;
52686;SDS011;38584;49.426;8.396;2023-08-06T00:58:54;7.03;;;2.75;;
52686;SDS011;38584;49.426;8.396;2023-08-06T01:01:19;6.22;;;2.72;;
52686;SDS011;38584;49.426;8.396;2023-08-06T01:03:44;9.13;;;3.23;;
52686;SDS011;38584;49.426;8.396;2023-08-06T01:06:09;7.37;;;2.90;;
52686;SDS011;38584;49.426;8.396;2023-08-06T01:15:56;8.85;;;2.63;;
52686;SDS011;38584;49.426;8.396;2023-08-06T01:18:23;12.15;;;3.47;;
52686;SDS011;38584;49.426;8.396;2023-08-06T01:20:48;7.33;;;3.00;;
52686;SDS011;38584;49.426;8.396;2023-08-06T01:23:14;9.45;;;3.00;;
52686;SDS011;38584;49.426;8.396;2023-08-06T01:25:42;9.77;;;3.30;;
52686;SDS011;38584;49.426;8.396;2023-08-06T01:28:11;9.63;;;3.20;;
52686;SDS011;38584;49.426;8.396;2023-08-06T01:30:40;8.65;;;3.03;;
52686;SDS011;38584;49.426;8.396;2023-08-06T01:33:06;7.93;;;3.35;;
52686;SDS011;38584;49.426;8.396;2023-08-06T01:35:34;9.48;;;3.55;;
52686;SDS011;38584;49.426;8.396;2023-08-06T01:38:00;9.25;;;3.08;;
52686;SDS011;38584;49.426;8.396;2023-08-06T01:40:26;10.55;;;3.15;;
52686;SDS011;38584;49.426;8.396;2023-08-06T01:42:53;8.90;;;3.00;;
52686;SDS011;38584;49.426;8.396;2023-08-06T01:45:18;8.43;;;3.13;;
52686;SDS011;38584;49.426;8.396;2023-08-06T01:47:43;8.17;;;2.83;;
52686;SDS011;38584;49.426;8.396;2023-08-06T01:50:12;11.27;;;3.03;;
52686;SDS011;38584;49.426;8.396;2023-08-06T01:52:37;8.23;;;3.08;;
52686;SDS011;38584;49.426;8.396;2023-08-06T01:55:02;8.43;;;3.00;;
52686;SDS011;38584;49.426;8.396;2023-08-06T01:57:27;8.88;;;3.00;;
52686;SDS011;38584;49.426;8.396;2023-08-06T01:59:59;10.77;;;3.33;;
52686;SDS011;38584;49.426;8.396;2023-08-06T02:02:24;9.95;;;2.92;;
52686;SDS011;38584;49.426;8.396;2023-08-06T02:04:49;8.23;;;3.00;;
52686;SDS011;38584;49.426;8.396;2023-08-06T02:07:14;6.50;;;2.87;;
52686;SDS011;38584;49.426;8.396;2023-08-06T02:09:39;8.67;;;3.03;;
52686;SDS011;38584;49.426;8.396;2023-08-06T02:12:05;7.77;;;2.90;;
52686;SDS011;38584;49.426;8.396;2023-08-06T02:14:30;10.18;;;2.97;;
52686;SDS011;38584;49.426;8.396;2023-08-06T02:16:55;16.13;;;3.50;;
52686;SDS011;38584;49.426;8.396;2023-08-06T02:19:21;9.27;;;2.97;;
52686;SDS011;38584;49.426;8.396;2023-08-06T02:21:49;10.77;;;2.90;;
52686;SDS011;38584;49.426;8.396;2023-08-06T02:24:14;11.38;;;2.95;;
52686;SDS011;38584;49.426;8.396;2023-08-06T02:26:39;8.60;;;3.37;;
52686;SDS011;38584;49.426;8.396;2023-08-06T02:29:04;9.07;;;2.90;;
52686;SDS011;38584;49.426;8.396;2023-08-06T02:31:29;7.93;;;2.75;;
52686;SDS011;38584;49.426;8.396;2023-08-06T02:33:55;10.47;;;3.20;;
52686;SDS011;38584;49.426;8.396;2023-08-06T02:36:23;7.03;;;2.88;;
52686;SDS011;38584;49.426;8.396;2023-08-06T02:38:48;12.10;;;3.30;;
52686;SDS011;38584;49.426;8.396;2023-08-06T02:41:13;9.30;;;3.17;;
52686;SDS011;38584;49.426;8.396;2023-08-06T02:43:38;8.93;;;2.90;;
52686;SDS011;38584;49.426;8.396;2023-08-06T02:46:10;9.30;;;3.03;;
52686;SDS011;38584;49.426;8.396;2023-08-06T02:48:35;8.40;;;2.95;;
52686;SDS011;38584;49.426;8.396;2023-08-06T02:51:00;8.33;;;2.50;;
52686;SDS011;38584;49.426;8.396;2023-08-06T02:53:25;8.70;;;2.93;;
52686;SDS011;38584;49.426;8.396;2023-08-06T02:55:51;9.82;;;3.22;;
52686;SDS011;38584;49.426;8.396;2023-08-06T02:58:16;7.43;;;2.55;;
52686;SDS011;38584;49.426;8.396;2023-08-06T03:00:42;8.63;;;2.70;;
52686;SDS011;38584;49.426;8.396;2023-08-06T03:03:08;8.20;;;2.72;;
52686;SDS011;38584;49.426;8.396;2023-08-06T03:05:36;10.60;;;2.97;;
52686;SDS011;38584;49.426;8.396;2023-08-06T03:08:01;8.98;;;3.00;;
52686;SDS011;38584;49.426;8.396;2023-08-06T03:10:26;7.90;;;2.70;;
52686;SDS011;38584;49.426;8.396;2023-08-06T03:12:54;6.55;;;2.60;;
52686;SDS011;38584;49.426;8.396;2023-08-06T03:15:20;9.80;;;3.05;;
52686;SDS011;38584;49.426;8.396;2023-08-06T03:17:45;6.00;;;2.43;;
52686;SDS011;38584;49.426;8.396;2023-08-06T03:20:10;8.63;;;2.77;;
52686;SDS011;38584;49.426;8.396;2023-08-06T03:22:35;9.00;;;2.90;;
52686;SDS011;38584;49.426;8.396;2023-08-06T03:25:00;8.50;;;2.40;;
52686;SDS011;38584;49.426;8.396;2023-08-06T03:27:26;8.83;;;2.37;;
52686;SDS011;38584;49.426;8.396;2023-08-06T03:29:51;6.37;;;2.67;;
52686;SDS011;38584;49.426;8.396;2023-08-06T03:32:16;11.00;;;2.30;;
52686;SDS011;38584;49.426;8.396;2023-08-06T03:34:44;8.00;;;2.33;;
52686;SDS011;38584;49.426;8.396;2023-08-06T03:37:09;9.65;;;2.35;;
52686;SDS011;38584;49.426;8.396;2023-08-06T03:39:34;9.35;;;2.50;;
52686;SDS011;38584;49.426;8.396;2023-08-06T03:42:02;10.03;;;2.40;;
52686;SDS011;38584;49.426;8.396;2023-08-06T03:44:28;9.90;;;2.30;;
52686;SDS011;38584;49.426;8.396;2023-08-06T03:46:53;7.73;;;2.17;;
52686;SDS011;38584;49.426;8.396;2023-08-06T03:49:21;10.93;;;2.80;;
52686;SDS011;38584;49.426;8.396;2023-08-06T03:51:46;8.68;;;2.65;;
52686;SDS011;38584;49.426;8.396;2023-08-06T03:54:12;8.25;;;2.65;;
52686;SDS011;38584;49.426;8.396;2023-08-06T03:56:37;9.27;;;2.80;;
52686;SDS011;38584;49.426;8.396;2023-08-06T03:59:02;9.53;;;2.50;;
52686;SDS011;38584;49.426;8.396;2023-08-06T04:01:27;10.27;;;2.90;;
52686;SDS011;38584;49.426;8.396;2023-08-06T04:03:55;9.93;;;2.80;;
52686;SDS011;38584;49.426;8.396;2023-08-06T04:06:20;9.70;;;2.70;;
52686;SDS011;38584;49.426;8.396;2023-08-06T04:08:46;9.50;;;3.00;;
52686;SDS011;38584;49.426;8.396;2023-08-06T04:11:11;9.07;;;2.80;;
52686;SDS011;38584;49.426;8.396;2023-08-06T04:13:38;10.70;;;2.53;;
52686;SDS011;38584;49.426;8.396;2023-08-06T04:16:03;8.93;;;2.43;;
52686;SDS011;38584;49.426;8.396;2023-08-06T04:18:31;11.57;;;2.80;;
52686;SDS011;38584;49.426;8.396;2023-08-06T04:20:56;7.63;;;2.60;;
52686;SDS011;38584;49.426;8.396;2023-08-06T04:23:25;10.27;;;3.30;;
52686;SDS011;38584;49.426;8.396;2023-08-06T04:25:56;6.65;;;2.58;;
52686;SDS011;38584;49.426;8.396;2023-08-06T04:28:21;8.18;;;2.40;;
52686;SDS011;38584;49.426;8.396;2023-08-06T04:30:46;8.17;;;2.20;;
52686;SDS011;38584;49.426;8.396;2023-08-06T04:33:11;10.07;;;2.13;;
52686;SDS011;38584;49.426;8.396;2023-08-06T04:35:36;9.87;;;2.03;;
52686;SDS011;38584;49.426;8.396;2023-08-06T04:38:04;5.80;;;1.77;;
52686;SDS011;38584;49.426;8.396;2023-08-06T04:40:30;8.75;;;1.92;;
52686;SDS011;38584;49.426;8.396;2023-08-06T04:42:57;6.32;;;1.75;;
52686;SDS011;38584;49.426;8.396;2023-08-06T04:45:25;5.27;;;1.90;;
52686;SDS011;38584;49.426;8.396;2023-08-06T04:47:51;6.15;;;1.63;;
52686;SDS011;38584;49.426;8.396;2023-08-06T04:50:19;6.30;;;1.43;;
52686;SDS011;38584;49.426;8.396;2023-08-06T04:52:44;9.52;;;1.67;;
52686;SDS011;38584;49.426;8.396;2023-08-06T04:55:10;5.53;;;1.40;;
52686;SDS011;38584;49.426;8.396;2023-08-06T04:57:38;5.47;;;1.90;;
52686;SDS011;38584;49.426;8.396;2023-08-06T05:00:03;2.63;;;1.00;;
52686;SDS011;38584;49.426;8.396;2023-08-06T05:02:29;6.65;;;1.13;;
52686;SDS011;38584;49.426;8.396;2023-08-06T05:04:57;2.85;;;0.90;;
52686;SDS011;38584;49.426;8.396;2023-08-06T05:07:24;3.57;;;1.13;;
52686;SDS011;38584;49.426;8.396;2023-08-06T05:09:50;7.22;;;1.40;;
52686;SDS011;38584;49.426;8.396;2023-08-06T05:12:15;3.60;;;1.10;;
52686;SDS011;38584;49.426;8.396;2023-08-06T05:14:43;4.77;;;1.40;;
52686;SDS011;38584;49.426;8.396;2023-08-06T05:17:08;3.22;;;1.00;;
52686;SDS011;38584;49.426;8.396;2023-08-06T05:19:33;4.47;;;1.13;;
52686;SDS011;38584;49.426;8.396;2023-08-06T05:21:59;7.43;;;1.40;;
52686;SDS011;38584;49.426;8.396;2023-08-06T05:24:24;3.87;;;1.03;;
52686;SDS011;38584;49.426;8.396;2023-08-06T05:26:49;6.43;;;1.40;;
52686;SDS011;38584;49.426;8.396;2023-08-06T05:29:15;6.50;;;1.40;;
52686;SDS011;38584;49.426;8.396;2023-08-06T05:31:41;5.13;;;1.40;;
52686;SDS011;38584;49.426;8.396;2023-08-06T05:34:09;6.63;;;1.67;;
52686;SDS011;38584;49.426;8.396;2023-08-06T05:36:34;6.75;;;1.30;;
52686;SDS011;38584;49.426;8.396;2023-08-06T05:38:59;6.23;;;1.27;;
52686;SDS011;38584;49.426;8.396;2023-08-06T05:41:27;8.53;;;1.83;;
52686;SDS011;38584;49.426;8.396;2023-08-06T05:43:52;6.40;;;1.60;;
52686;SDS011;38584;49.426;8.396;2023-08-06T05:46:17;5.30;;;1.40;;
52686;SDS011;38584;49.426;8.396;2023-08-06T05:48:45;4.73;;;1.80;;
52686;SDS011;38584;49.426;8.396;2023-08-06T05:51:10;7.43;;;1.60;;
52686;SDS011;38584;49.426;8.396;2023-08-06T05:53:37;6.55;;;1.67;;
52686;SDS011;38584;49.426;8.396;2023-08-06T05:56:03;8.52;;;1.73;;
52686;SDS011;38584;49.426;8.396;2023-08-06T05:58:28;6.97;;;1.50;;
52686;SDS011;38584;49.426;8.396;2023-08-06T06:00:58;8.13;;;1.70;;
52686;SDS011;38584;49.426;8.396;2023-08-06T06:03:29;8.18;;;1.80;;
52686;SDS011;38584;49.426;8.396;2023-08-06T06:05:54;7.65;;;1.73;;
52686;SDS011;38584;49.426;8.396;2023-08-06T06:08:19;5.53;;;1.60;;
52686;SDS011;38584;49.426;8.396;2023-08-06T06:10:44;12.57;;;1.90;;
52686;SDS011;38584;49.426;8.396;2023-08-06T06:13:10;7.83;;;1.43;;
52686;SDS011;38584;49.426;8.396;2023-08-06T06:15:35;11.03;;;1.70;;
52686;SDS011;38584;49.426;8.396;2023-08-06T06:18:00;10.40;;;1.70;;
52686;SDS011;38584;49.426;8.396;2023-08-06T06:20:25;7.00;;;1.40;;
52686;SDS011;38584;49.426;8.396;2023-08-06T06:22:50;7.90;;;1.57;;
52686;SDS011;38584;49.426;8.396;2023-08-06T06:25:16;3.90;;;1.13;;
52686;SDS011;38584;49.426;8.396;2023-08-06T06:27:44;9.13;;;1.80;;
52686;SDS011;38584;49.426;8.396;2023-08-06T06:30:09;4.45;;;1.40;;
52686;SDS011;38584;49.426;8.396;2023-08-06T06:32:36;4.10;;;1.00;;
52686;SDS011;38584;49.426;8.396;2023-08-06T06:35:02;7.90;;;1.50;;
52686;SDS011;38584;49.426;8.396;2023-08-06T06:37:27;9.02;;;1.63;;
52686;SDS011;38584;49.426;8.396;2023-08-06T06:39:52;6.50;;;1.40;;
52686;SDS011;38584;49.426;8.396;2023-08-06T06:42:17;5.07;;;1.10;;
52686;SDS011;38584;49.426;8.396;2023-08-06T06:44:42;3.33;;;1.07;;
52686;SDS011;38584;49.426;8.396;2023-08-06T06:47:08;5.95;;;1.33;;
52686;SDS011;38584;49.426;8.396;2023-08-06T06:49:36;5.10;;;1.20;;
52686;SDS011;38584;49.426;8.396;2023-08-06T06:52:01;7.57;;;1.25;;
52686;SDS011;38584;49.426;8.396;2023-08-06T06:54:26;5.30;;;1.00;;
52686;SDS011;38584;49.426;8.396;2023-08-06T06:56:51;5.03;;;1.17;;
52686;SDS011;38584;49.426;8.396;2023-08-06T06:59:17;4.63;;;1.20;;
52686;SDS011;38584;49.426;8.396;2023-08-06T07:01:42;4.93;;;1.13;;
52686;SDS011;38584;49.426;8.396;2023-08-06T07:04:07;2.80;;;0.77;;
52686;SDS011;38584;49.426;8.396;2023-08-06T07:06:32;4.33;;;1.00;;
52686;SDS011;38584;49.426;8.396;2023-08-06T07:08:58;4.75;;;0.98;;
52686;SDS011;38584;49.426;8.396;2023-08-06T07:11:23;4.87;;;1.07;;
52686;SDS011;38584;49.426;8.396;2023-08-06T07:13:49;3.33;;;0.80;;
52686;SDS011;38584;49.426;8.396;2023-08-06T07:16:14;3.80;;;0.95;;
52686;SDS011;38584;49.426;8.396;2023-08-06T07:18:40;5.43;;;1.17;;
52686;SDS011;38584;49.426;8.396;2023-08-06T07:21:05;3.20;;;0.83;;
52686;SDS011;38584;49.426;8.396;2023-08-06T07:23:30;1.97;;;0.80;;
52686;SDS011;38584;49.426;8.396;2023-08-06T07:25:55;4.03;;;1.00;;
52686;SDS011;38584;49.426;8.396;2023-08-06T07:28:20;3.37;;;0.80;;
52686;SDS011;38584;49.426;8.396;2023-08-06T07:30:45;2.00;;;0.60;;
52686;SDS011;38584;49.426;8.396;2023-08-06T07:33:11;2.40;;;0.80;;
52686;SDS011;38584;49.426;8.396;2023-08-06T07:35:36;6.60;;;1.38;;
52686;SDS011;38584;49.426;8.396;2023-08-06T07:38:02;3.67;;;0.75;;
52686;SDS011;38584;49.426;8.396;2023-08-06T07:40:27;2.28;;;0.93;;
52686;SDS011;38584;49.426;8.396;2023-08-06T07:42:52;6.45;;;0.75;;
52686;SDS011;38584;49.426;8.396;2023-08-06T07:45:18;3.97;;;1.03;;
52686;SDS011;38584;49.426;8.396;2023-08-06T07:47:46;1.77;;;0.60;;
52686;SDS011;38584;49.426;8.396;2023-08-06T07:50:12;3.55;;;0.80;;
52686;SDS011;38584;49.426;8.396;2023-08-06T07:52:37;3.42;;;0.85;;
52686;SDS011;38584;49.426;8.396;2023-08-06T07:55:02;2.40;;;0.70;;
52686;SDS011;38584;49.426;8.396;2023-08-06T07:57:30;2.50;;;0.80;;
52686;SDS011;38584;49.426;8.396;2023-08-06T07:59:55;0.65;;;0.50;;
52686;SDS011;38584;49.426;8.396;2023-08-06T08:02:20;3.35;;;0.93;;
52686;SDS011;38584;49.426;8.396;2023-08-06T08:04:46;1.70;;;0.70;;
52686;SDS011;38584;49.426;8.396;2023-08-06T08:07:12;0.75;;;0.50;;
52686;SDS011;38584;49.426;8.396;2023-08-06T08:09:37;1.20;;;0.60;;
52686;SDS011;38584;49.426;8.396;2023-08-06T08:12:03;3.03;;;0.90;;
52686;SDS011;38584;49.426;8.396;2023-08-06T08:14:28;2.10;;;0.55;;
52686;SDS011;38584;49.426;8.396;2023-08-06T08:16:54;1.30;;;0.57;;
52686;SDS011;38584;49.426;8.396;2023-08-06T08:19:19;1.03;;;0.70;;
52686;SDS011;38584;49.426;8.396;2023-08-06T08:21:44;0.52;;;0.43;;
52686;SDS011;38584;49.426;8.396;2023-08-06T08:24:15;1.03;;;0.30;;
52686;SDS011;38584;49.426;8.396;2023-08-06T08:26:44;0.52;;;0.40;;
52686;SDS011;38584;49.426;8.396;2023-08-06T08:29:09;2.17;;;0.67;;
52686;SDS011;38584;49.426;8.396;2023-08-06T08:31:35;1.80;;;0.70;;
52686;SDS011;38584;49.426;8.396;2023-08-06T08:34:04;1.33;;;0.55;;
52686;SDS011;38584;49.426;8.396;2023-08-06T08:36:29;1.57;;;0.60;;
52686;SDS011;38584;49.426;8.396;2023-08-06T08:38:54;1.13;;;0.53;;
52686;SDS011;38584;49.426;8.396;2023-08-06T08:41:20;0.52;;;0.32;;
52686;SDS011;38584;49.426;8.396;2023-08-06T08:43:46;1.48;;;0.80;;
52686;SDS011;38584;49.426;8.396;2023-08-06T08:46:15;0.30;;;0.30;;
52686;SDS011;38584;49.426;8.396;2023-08-06T08:48:40;0.55;;;0.50;;
52686;SDS011;38584;49.426;8.396;2023-08-06T08:51:05;3.07;;;0.63;;
52686;SDS011;38584;49.426;8.396;2023-08-06T08:53:31;1.55;;;0.50;;
52686;SDS011;38584;49.426;8.396;2023-08-06T08:55:56;0.30;;;0.30;;
52686;SDS011;38584;49.426;8.396;2023-08-06T08:58:21;0.50;;;0.40;;
52686;SDS011;38584;49.426;8.396;2023-08-06T09:00:47;2.07;;;0.60;;
52686;SDS011;38584;49.426;8.396;2023-08-06T09:03:18;0.22;;;0.22;;
52686;SDS011;38584;49.426;8.396;2023-08-06T09:05:44;0.40;;;0.40;;
52686;SDS011;38584;49.426;8.396;2023-08-06T09:08:15;0.40;;;0.35;;
52686;SDS011;38584;49.426;8.396;2023-08-06T09:10:43;0.52;;;0.40;;
52686;SDS011;38584;49.426;8.396;2023-08-06T09:13:08;0.30;;;0.30;;
52686;SDS011;38584;49.426;8.396;2023-08-06T09:15:39;0.60;;;0.40;;
52686;SDS011;38584;49.426;8.396;2023-08-06T09:18:11;1.08;;;0.35;;
52686;SDS011;38584;49.426;8.396;2023-08-06T09:20:37;0.40;;;0.30;;
52686;SDS011;38584;49.426;8.396;2023-08-06T09:23:06;1.33;;;0.50;;
52686;SDS011;38584;49.426;8.396;2023-08-06T09:25:36;0.52;;;0.32;;
52686;SDS011;38584;49.426;8.396;2023-08-06T09:28:01;0.30;;;0.30;;
52686;SDS011;38584;49.426;8.396;2023-08-06T09:30:31;1.80;;;0.40;;
52686;SDS011;38584;49.426;8.396;2023-08-06T09:32:56;1.10;;;0.60;;
52686;SDS011;38584;49.426;8.396;2023-08-06T09:35:27;0.50;;;0.50;;
52686;SDS011;38584;49.426;8.396;2023-08-06T09:37:52;0.63;;;0.45;;
52686;SDS011;38584;49.426;8.396;2023-08-06T09:40:30;1.67;;;0.47;;
52686;SDS011;38584;49.426;8.396;2023-08-06T09:42:56;0.77;;;0.40;;
52686;SDS011;38584;49.426;8.396;2023-08-06T09:45:22;2.50;;;0.60;;
52686;SDS011;38584;49.426;8.396;2023-08-06T09:47:48;1.38;;;0.20;;
52686;SDS011;38584;49.426;8.396;2023-08-06T09:50:17;0.45;;;0.30;;
52686;SDS011;38584;49.426;8.396;2023-08-06T09:52:42;0.45;;;0.40;;
52686;SDS011;38584;49.426;8.396;2023-08-06T09:55:07;0.80;;;0.43;;
52686;SDS011;38584;49.426;8.396;2023-08-06T09:57:42;0.47;;;0.30;;
52686;SDS011;38584;49.426;8.396;2023-08-06T10:00:08;0.63;;;0.47;;
52686;SDS011;38584;49.426;8.396;2023-08-06T10:02:37;0.32;;;0.32;;
52686;SDS011;38584;49.426;8.396;2023-08-06T10:05:03;0.35;;;0.30;;
52686;SDS011;38584;49.426;8.396;2023-08-06T10:07:29;0.30;;;0.30;;
52686;SDS011;38584;49.426;8.396;2023-08-06T10:09:54;1.05;;;0.30;;
52686;SDS011;38584;49.426;8.396;2023-08-06T10:12:20;2.50;;;0.60;;
52686;SDS011;38584;49.426;8.396;2023-08-06T10:14:46;0.40;;;0.40;;
52686;SDS011;38584;49.426;8.396;2023-08-06T10:17:12;0.90;;;0.30;;
52686;SDS011;38584;49.426;8.396;2023-08-06T10:19:40;1.45;;;0.65;;
52686;SDS011;38584;49.426;8.396;2023-08-06T10:22:15;1.60;;;0.60;;
52686;SDS011;38584;49.426;8.396;2023-08-06T10:27:19;1.15;;;0.40;;
52686;SDS011;38584;49.426;8.396;2023-08-06T10:29:44;0.20;;;0.10;;
52686;SDS011;38584;49.426;8.396;2023-08-06T10:32:09;0.87;;;0.57;;
52686;SDS011;38584;49.426;8.396;2023-08-06T10:37:22;0.85;;;0.50;;
52686;SDS011;38584;49.426;8.396;2023-08-06T10:39:57;0.40;;;0.40;;
52686;SDS011;38584;49.426;8.396;2023-08-06T10:42:29;0.93;;;0.57;;
52686;SDS011;38584;49.426;8.396;2023-08-06T10:47:39;1.00;;;0.52;;
52686;SDS011;38584;49.426;8.396;2023-08-06T10:50:05;0.82;;;0.60;;
52686;SDS011;38584;49.426;8.396;2023-08-06T10:52:30;1.00;;;0.73;;
52686;SDS011;38584;49.426;8.396;2023-08-06T10:54:59;2.00;;;0.67;;
52686;SDS011;38584;49.426;8.396;2023-08-06T10:57:24;0.60;;;0.40;;
52686;SDS011;38584;49.426;8.396;2023-08-06T10:59:49;3.87;;;0.70;;
52686;SDS011;38584;49.426;8.396;2023-08-06T11:02:14;0.60;;;0.60;;
52686;SDS011;38584;49.426;8.396;2023-08-06T11:04:39;1.20;;;0.60;;
52686;SDS011;38584;49.426;8.396;2023-08-06T11:07:06;1.30;;;0.68;;
52686;SDS011;38584;49.426;8.396;2023-08-06T11:09:31;5.18;;;0.73;;
52686;SDS011;38584;49.426;8.396;2023-08-06T11:11:58;4.33;;;0.77;;
52686;SDS011;38584;49.426;8.396;2023-08-06T11:14:30;1.08;;;0.65;;
52686;SDS011;38584;49.426;8.396;2023-08-06T11:16:58;1.73;;;0.80;;
52686;SDS011;38584;49.426;8.396;2023-08-06T11:19:24;1.08;;;0.70;;
52686;SDS011;38584;49.426;8.396;2023-08-06T11:21:51;3.00;;;0.73;;
52686;SDS011;38584;49.426;8.396;2023-08-06T11:24:16;2.67;;;0.85;;
52686;SDS011;38584;49.426;8.396;2023-08-06T11:26:42;0.85;;;0.43;;
52686;SDS011;38584;49.426;8.396;2023-08-06T11:29:09;0.50;;;0.50;;
52686;SDS011;38584;49.426;8.396;2023-08-06T11:31:35;1.53;;;0.60;;
52686;SDS011;38584;49.426;8.396;2023-08-06T11:34:01;4.65;;;0.98;;
52686;SDS011;38584;49.426;8.396;2023-08-06T11:36:32;0.90;;;0.70;;
52686;SDS011;38584;49.426;8.396;2023-08-06T11:39:01;1.30;;;0.95;;
52686;SDS011;38584;49.426;8.396;2023-08-06T11:41:30;2.05;;;0.95;;
52686;SDS011;38584;49.426;8.396;2023-08-06T11:43:56;2.50;;;1.08;;
52686;SDS011;38584;49.426;8.396;2023-08-06T11:46:21;1.67;;;0.73;;
52686;SDS011;38584;49.426;8.396;2023-08-06T11:48:54;4.65;;;1.23;;
52686;SDS011;38584;49.426;8.396;2023-08-06T11:51:22;3.80;;;1.00;;
52686;SDS011;38584;49.426;8.396;2023-08-06T11:53:51;3.30;;;1.33;;
52686;SDS011;38584;49.426;8.396;2023-08-06T11:56:16;2.20;;;1.10;;
52686;SDS011;38584;49.426;8.396;2023-08-06T11:58:41;4.03;;;1.10;;
52686;SDS011;38584;49.426;8.396;2023-08-06T12:01:07;3.28;;;1.23;;
52686;SDS011;38584;49.426;8.396;2023-08-06T12:03:32;4.60;;;1.17;;
52686;SDS011;38584;49.426;8.396;2023-08-06T12:05:57;2.70;;;1.10;;
52686;SDS011;38584;49.426;8.396;2023-08-06T12:08:26;2.37;;;1.13;;
52686;SDS011;38584;49.426;8.396;2023-08-06T12:10:51;4.30;;;1.33;;
52686;SDS011;38584;49.426;8.396;2023-08-06T12:13:18;2.15;;;1.30;;
52686;SDS011;38584;49.426;8.396;2023-08-06T12:15:43;5.00;;;1.50;;
52686;SDS011;38584;49.426;8.396;2023-08-06T12:18:09;5.28;;;1.30;;
52686;SDS011;38584;49.426;8.396;2023-08-06T12:20:37;4.68;;;1.40;;
52686;SDS011;38584;49.426;8.396;2023-08-06T12:23:03;5.38;;;1.40;;
52686;SDS011;38584;49.426;8.396;2023-08-06T12:25:28;4.53;;;1.50;;
52686;SDS011;38584;49.426;8.396;2023-08-06T12:27:53;4.60;;;1.50;;
52686;SDS011;38584;49.426;8.396;2023-08-06T12:30:19;2.67;;;1.47;;
52686;SDS011;38584;49.426;8.396;2023-08-06T12:32:44;2.67;;;1.20;;
52686;SDS011;38584;49.426;8.396;2023-08-06T12:35:09;2.47;;;1.30;;
52686;SDS011;38584;49.426;8.396;2023-08-06T12:37:35;2.27;;;1.03;;
52686;SDS011;38584;49.426;8.396;2023-08-06T12:40:00;4.57;;;1.27;;
52686;SDS011;38584;49.426;8.396;2023-08-06T12:42:31;1.87;;;1.10;;
52686;SDS011;38584;49.426;8.396;2023-08-06T12:44:56;4.22;;;1.10;;
52686;SDS011;38584;49.426;8.396;2023-08-06T12:47:21;2.20;;;0.93;;
52686;SDS011;38584;49.426;8.396;2023-08-06T12:49:47;4.60;;;1.10;;
52686;SDS011;38584;49.426;8.396;2023-08-06T12:52:12;3.23;;;1.00;;
52686;SDS011;38584;49.426;8.396;2023-08-06T12:54:40;1.88;;;0.90;;
52686;SDS011;38584;49.426;8.396;2023-08-06T12:57:05;3.17;;;1.20;;
52686;SDS011;38584;49.426;8.396;2023-08-06T12:59:30;3.97;;;1.02;;
52686;SDS011;38584;49.426;8.396;2023-08-06T13:01:56;2.30;;;0.95;;
52686;SDS011;38584;49.426;8.396;2023-08-06T13:04:21;2.30;;;0.80;;
52686;SDS011;38584;49.426;8.396;2023-08-06T13:06:49;1.67;;;0.97;;
52686;SDS011;38584;49.426;8.396;2023-08-06T13:09:14;2.45;;;1.02;;
52686;SDS011;38584;49.426;8.396;2023-08-06T13:11:46;1.85;;;0.80;;
52686;SDS011;38584;49.426;8.396;2023-08-06T13:14:14;1.85;;;0.93;;
52686;SDS011;38584;49.426;8.396;2023-08-06T13:16:40;5.73;;;1.23;;
52686;SDS011;38584;49.426;8.396;2023-08-06T13:19:12;2.55;;;1.00;;
52686;SDS011;38584;49.426;8.396;2023-08-06T13:24:07;3.25;;;1.20;;
52686;SDS011;38584;49.426;8.396;2023-08-06T13:26:44;2.95;;;1.00;;
52686;SDS011;38584;49.426;8.396;2023-08-06T13:29:12;2.35;;;1.02;;
52686;SDS011;38584;49.426;8.396;2023-08-06T13:31:37;1.85;;;0.88;;
52686;SDS011;38584;49.426;8.396;2023-08-06T13:34:03;2.42;;;0.90;;
52686;SDS011;38584;49.426;8.396;2023-08-06T13:36:28;3.15;;;1.15;;
52686;SDS011;38584;49.426;8.396;2023-08-06T13:38:53;5.53;;;1.30;;
52686;SDS011;38584;49.426;8.396;2023-08-06T13:41:21;2.35;;;0.90;;
52686;SDS011;38584;49.426;8.396;2023-08-06T13:43:47;3.35;;;1.00;;
52686;SDS011;38584;49.426;8.396;2023-08-06T13:46:18;3.13;;;1.05;;
52686;SDS011;38584;49.426;8.396;2023-08-06T13:48:48;5.82;;;1.30;;
52686;SDS011;38584;49.426;8.396;2023-08-06T13:51:17;4.28;;;1.17;;
52686;SDS011;38584;49.426;8.396;2023-08-06T13:53:45;2.30;;;0.70;;
52686;SDS011;38584;49.426;8.396;2023-08-06T13:56:11;3.33;;;1.20;;
52686;SDS011;38584;49.426;8.396;2023-08-06T13:58:36;3.53;;;0.93;;
52686;SDS011;38584;49.426;8.396;2023-08-06T14:01:01;2.88;;;1.20;;
52686;SDS011;38584;49.426;8.396;2023-08-06T14:03:26;4.07;;;1.00;;
52686;SDS011;38584;49.426;8.396;2023-08-06T14:05:51;5.13;;;1.00;;
52686;SDS011;38584;49.426;8.396;2023-08-06T14:08:17;1.45;;;0.88;;
52686;SDS011;38584;49.426;8.396;2023-08-06T14:10:43;3.13;;;1.05;;
52686;SDS011;38584;49.426;8.396;2023-08-06T14:13:08;6.25;;;1.23;;
52686;SDS011;38584;49.426;8.396;2023-08-06T14:15:33;2.30;;;1.00;;
52686;SDS011;38584;49.426;8.396;2023-08-06T14:17:59;4.27;;;1.17;;
52686;SDS011;38584;49.426;8.396;2023-08-06T14:20:26;3.88;;;1.08;;
52686;SDS011;38584;49.426;8.396;2023-08-06T14:22:52;2.33;;;1.00;;
52686;SDS011;38584;49.426;8.396;2023-08-06T14:25:17;2.70;;;1.10;;
52686;SDS011;38584;49.426;8.396;2023-08-06T14:27:42;1.92;;;1.00;;
52686;SDS011;38584;49.426;8.396;2023-08-06T14:30:07;2.33;;;1.03;;
52686;SDS011;38584;49.426;8.396;2023-08-06T14:32:33;2.45;;;0.90;;
52686;SDS011;38584;49.426;8.396;2023-08-06T14:34:58;2.07;;;1.00;;
52686;SDS011;38584;49.426;8.396;2023-08-06T14:37:24;3.55;;;1.25;;
52686;SDS011;38584;49.426;8.396;2023-08-06T14:39:49;3.83;;;1.10;;
52686;SDS011;38584;49.426;8.396;2023-08-06T14:42:17;3.77;;;1.33;;
52686;SDS011;38584;49.426;8.396;2023-08-06T14:44:48;2.03;;;1.10;;
52686;SDS011;38584;49.426;8.396;2023-08-06T14:47:15;2.67;;;1.13;;
52686;SDS011;38584;49.426;8.396;2023-08-06T14:49:43;3.57;;;0.90;;
52686;SDS011;38584;49.426;8.396;2023-08-06T14:52:09;2.38;;;1.17;;
52686;SDS011;38584;49.426;8.396;2023-08-06T14:54:41;3.23;;;1.10;;
52686;SDS011;38584;49.426;8.396;2023-08-06T14:57:09;3.17;;;1.20;;